Time;durP1;ratioP1;P1;durP2;ratioP2;P2;SDS_P1;SDS_P2;PMS_P1;PMS_P2;Temp;Humidity;BMP_temperature;BMP_pressure;BME280_temperature;BME280_humidity;BME280_pressure;Samples;Min_cycle;Max_cycle;Signal;HPM_P1;HPM_P2
2022/06/27 06:08:36;;;;;;;;;3.67;3.67;;;;;20.35;56.86;101329.06;5068026;27;45820;-76
2022/06/27 06:11:02;;;;;;;;;3.00;3.00;;;;;20.48;56.95;101326.16;5059691;28;45491;-75
2022/06/27 06:13:28;;;;;;;;;4.00;4.00;;;;;20.71;56.00;101320.56;5062099;27;46059;-76
2022/06/27 06:15:53;;;;;;;;;4.00;3.00;;;;;20.97;56.30;101312.03;5068647;28;45394;-75
2022/06/27 06:18:19;;;;;;;;;5.00;3.67;;;;;21.24;55.05;101288.94;5060830;28;45453;-75
2022/06/27 06:20:45;;;;;;;;;4.00;3.67;;;;;21.53;54.77;101299.75;5066782;28;45511;-76
2022/06/27 06:23:10;;;;;;;;;3.67;3.67;;;;;21.83;54.49;101316.84;5058279;28;45459;-76
2022/06/27 06:25:36;;;;;;;;;5.33;3.67;;;;;22.14;54.01;101336.63;5062750;28;45342;-77
2022/06/27 06:28:04;;;;;;;;;3.33;3.33;;;;;22.43;52.87;101357.34;5070588;27;46109;-77
2022/06/27 06:30:31;;;;;;;;;4.00;3.00;;;;;22.69;52.63;101327.81;5063458;28;45414;-76
2022/06/27 06:33:02;;;;;;;;;4.00;4.00;;;;;22.93;51.92;101337.22;5065047;28;45668;-75
2022/06/27 06:35:32;;;;;;;;;3.00;3.00;;;;;23.15;51.78;101344.09;5067211;28;45438;-74
2022/06/27 06:37:58;;;;;;;;;4.00;4.00;;;;;23.38;51.13;101332.00;5065892;28;47211;-75
2022/06/27 06:40:24;;;;;;;;;6.67;3.33;;;;;23.58;50.82;101337.28;5072127;27;45446;-75
2022/06/27 06:42:50;;;;;;;;;4.00;4.00;;;;;23.76;50.49;101338.13;5058129;27;45513;-77
2022/06/27 06:45:15;;;;;;;;;2.33;2.33;;;;;23.91;49.99;101341.13;5061434;27;45558;-77
2022/06/27 06:47:44;;;;;;;;;4.00;2.67;;;;;24.06;49.74;101351.41;5061377;27;45280;-77
2022/06/27 06:50:13;;;;;;;;;4.33;3.00;;;;;24.20;49.22;101353.59;5063365;28;45384;-76
2022/06/27 06:52:41;;;;;;;;;5.00;5.00;;;;;24.34;48.99;101348.59;5054222;27;45470;-75
2022/06/27 06:55:07;;;;;;;;;4.33;4.33;;;;;24.48;48.68;101347.13;5065047;28;45407;-76
2022/06/27 06:57:33;;;;;;;;;4.00;4.00;;;;;24.59;48.22;101352.31;5060308;27;46304;-76
2022/06/27 06:59:58;;;;;;;;;4.00;4.00;;;;;24.70;48.19;101356.63;5057481;27;48498;-75
2022/06/27 07:02:24;;;;;;;;;6.00;4.00;;;;;24.81;48.02;101371.75;5057991;27;45482;-76
2022/06/27 07:04:50;;;;;;;;;3.00;3.00;;;;;24.90;47.63;101378.13;5061073;28;45477;-74
2022/06/27 07:07:17;;;;;;;;;4.00;2.33;;;;;24.97;47.58;101390.03;5068597;27;47080;-75
2022/06/27 07:09:42;;;;;;;;;1.33;1.33;;;;;25.04;47.49;101397.50;5086909;27;45383;-75
2022/06/27 07:12:08;;;;;;;;;3.67;3.67;;;;;25.09;47.96;101404.16;5083301;27;47388;-75
2022/06/27 07:14:34;;;;;;;;;2.00;2.00;;;;;25.19;47.74;101416.75;5081123;27;45805;-76
2022/06/27 07:16:59;;;;;;;;;3.33;2.67;;;;;25.29;47.36;101414.75;5081422;27;46087;-74
2022/06/27 07:19:24;;;;;;;;;3.00;3.00;;;;;25.38;46.97;101412.94;5067428;27;45506;-75
2022/06/27 07:21:50;;;;;;;;;5.00;2.67;;;;;25.46;47.42;101418.38;5066409;27;45583;-74
2022/06/27 07:24:15;;;;;;;;;4.33;3.00;;;;;25.55;47.07;101415.69;5068192;27;45565;-75
2022/06/27 07:26:41;;;;;;;;;2.00;2.00;;;;;25.61;47.12;101415.06;5070535;27;45903;-77
2022/06/27 07:29:06;;;;;;;;;4.00;4.00;;;;;25.69;46.84;101419.66;5072933;28;45587;-76
2022/06/27 07:31:32;;;;;;;;;3.33;2.00;;;;;25.75;46.54;101414.41;5071092;27;45538;-77
2022/06/27 07:33:59;;;;;;;;;2.67;2.67;;;;;25.81;46.61;101421.03;5070301;27;45495;-77
2022/06/27 07:36:25;;;;;;;;;2.00;2.00;;;;;25.86;46.15;101413.22;5065723;28;46023;-76
2022/06/27 07:38:54;;;;;;;;;1.00;1.00;;;;;25.91;46.49;101413.56;5067128;27;47056;-76
2022/06/27 07:41:20;;;;;;;;;1.67;1.67;;;;;25.97;46.58;101414.78;5068752;28;45509;-77
2022/06/27 07:43:47;;;;;;;;;1.67;1.67;;;;;26.02;46.65;101416.97;5069340;27;45556;-77
2022/06/27 07:46:15;;;;;;;;;2.00;2.00;;;;;26.07;46.45;101425.47;5072355;27;46135;-79
2022/06/27 07:48:41;;;;;;;;;2.67;2.67;;;;;26.13;45.64;101421.25;5067210;28;45566;-76
2022/06/27 07:51:06;;;;;;;;;4.00;4.00;;;;;26.17;44.49;101426.16;5071244;28;45467;-76
2022/06/27 07:53:32;;;;;;;;;4.00;2.00;;;;;26.20;45.03;101422.28;5065381;28;49667;-77
2022/06/27 07:56:00;;;;;;;;;3.00;3.00;;;;;26.22;45.08;101422.06;5071854;28;47080;-77
2022/06/27 07:58:30;;;;;;;;;3.00;3.00;;;;;26.22;45.09;101416.63;5065269;28;45639;-75
2022/06/27 08:00:58;;;;;;;;;5.00;3.67;;;;;26.19;44.89;101415.09;5073490;27;45463;-74
2022/06/27 08:03:36;;;;;;;;;3.67;3.00;;;;;26.20;44.66;101416.84;5067769;28;45426;-76
2022/06/27 08:06:22;;;;;;;;;3.67;3.67;;;;;26.21;44.23;101423.97;5052709;28;47273;-82
2022/06/27 08:08:51;;;;;;;;;5.67;4.00;;;;;26.22;44.27;101425.66;5065084;27;45549;-76
2022/06/27 08:11:19;;;;;;;;;2.67;2.67;;;;;26.20;45.47;101430.44;5067992;28;46081;-78
2022/06/27 08:13:47;;;;;;;;;4.00;3.00;;;;;26.17;45.64;101434.31;5072012;28;45467;-75
2022/06/27 08:16:14;;;;;;;;;3.33;3.00;;;;;26.14;45.17;101431.09;5071613;28;46099;-75
2022/06/27 08:18:42;;;;;;;;;4.00;2.33;;;;;26.14;44.48;101431.94;5069242;28;45509;-75
2022/06/27 08:21:08;;;;;;;;;5.33;4.67;;;;;26.15;44.84;101435.50;5068031;28;45507;-76
2022/06/27 08:23:36;;;;;;;;;5.67;5.67;;;;;26.17;44.41;101442.47;5069091;28;51862;-75
2022/06/27 08:26:06;;;;;;;;;4.33;4.33;;;;;26.20;44.29;101443.19;5072110;28;46186;-76
2022/06/27 08:28:33;;;;;;;;;5.00;3.33;;;;;26.25;43.92;101451.72;5073074;27;46988;-76
2022/06/27 08:31:01;;;;;;;;;3.33;3.33;;;;;26.29;43.91;101458.53;5073261;28;45436;-76
2022/06/27 08:33:28;;;;;;;;;3.00;3.00;;;;;26.31;43.91;101473.66;5072071;28;45533;-76
2022/06/27 08:35:56;;;;;;;;;4.33;4.33;;;;;26.34;43.69;101463.44;5072777;28;46364;-75
2022/06/27 08:38:22;;;;;;;;;3.00;3.00;;;;;26.36;43.21;101462.25;5072212;28;45466;-75
2022/06/27 08:40:48;;;;;;;;;4.00;4.00;;;;;26.38;43.23;101462.06;5068018;28;46432;-76
2022/06/27 08:43:14;;;;;;;;;5.33;3.00;;;;;26.39;43.22;101459.19;5073587;28;45438;-76
2022/06/27 08:45:43;;;;;;;;;2.00;2.00;;;;;26.39;42.79;101461.06;5074096;28;46095;-75
2022/06/27 08:48:09;;;;;;;;;2.00;2.00;;;;;26.39;43.15;101467.34;5066988;28;46026;-76
2022/06/27 08:50:35;;;;;;;;;4.00;3.00;;;;;26.41;42.93;101472.63;5072767;28;45830;-77
2022/06/27 08:53:01;;;;;;;;;1.33;1.33;;;;;26.40;42.59;101473.66;5072092;28;45476;-75
2022/06/27 08:55:27;;;;;;;;;3.33;3.00;;;;;26.39;43.04;101461.91;5071755;28;45502;-76
2022/06/27 08:57:52;;;;;;;;;3.00;3.00;;;;;26.42;42.51;101463.44;5044854;28;45463;-76
2022/06/27 09:00:18;;;;;;;;;2.00;2.00;;;;;26.44;42.49;101464.97;5065496;28;49071;-75
2022/06/27 09:02:44;;;;;;;;;4.33;4.33;;;;;26.48;42.55;101467.34;5069701;28;45463;-75
2022/06/27 09:05:18;;;;;;;;;2.00;2.00;;;;;26.51;42.20;101464.28;5069076;28;47091;-76
2022/06/27 09:07:52;;;;;;;;;4.00;3.00;;;;;26.53;42.46;101456.81;5068052;28;45518;-76
2022/06/27 09:10:32;;;;;;;;;4.33;3.00;;;;;26.55;42.22;101452.88;5069913;27;51629;-76
2022/06/27 09:13:03;;;;;;;;;4.00;4.00;;;;;26.57;42.23;101453.56;5070187;28;45789;-76
2022/06/27 09:15:37;;;;;;;;;4.00;4.00;;;;;26.60;42.15;101448.81;5066760;28;46035;-77
2022/06/27 09:18:06;;;;;;;;;2.00;2.00;;;;;26.61;42.71;101448.63;5069220;28;45615;-77
2022/06/27 09:20:57;;;;;;;;;2.00;2.00;;;;;26.64;41.64;101451.00;5071626;28;45441;-76
2022/06/27 09:23:28;;;;;;;;;4.00;3.00;;;;;26.65;41.83;101446.41;5060277;28;47074;-76
2022/06/27 09:26:02;;;;;;;;;2.67;2.67;;;;;26.65;42.06;101443.69;5070609;28;46118;-77
2022/06/27 09:28:44;;;;;;;;;1.67;1.67;;;;;26.62;42.37;101442.16;5069916;28;45587;-75
2022/06/27 09:31:12;;;;;;;;;3.00;2.33;;;;;26.61;41.76;101439.59;5073935;28;45381;-75
2022/06/27 09:33:41;;;;;;;;;4.00;4.00;;;;;26.62;41.97;101436.72;5065881;28;45708;-77
2022/06/27 09:36:13;;;;;;;;;3.67;2.33;;;;;26.62;41.43;101447.59;5068935;28;45431;-77
2022/06/27 09:38:42;;;;;;;;;3.00;2.00;;;;;26.66;41.69;101448.09;5068754;28;45809;-76
2022/06/27 09:41:13;;;;;;;;;4.33;2.00;;;;;26.66;41.38;101454.41;5061209;27;45573;-77
2022/06/27 09:43:47;;;;;;;;;4.00;2.00;;;;;26.65;41.41;101447.25;5066249;27;45494;-77
2022/06/27 09:46:15;;;;;;;;;2.67;2.67;;;;;26.68;41.67;101449.63;5071132;28;45385;-77
2022/06/27 09:48:43;;;;;;;;;1.00;1.00;;;;;26.70;41.56;101455.75;5057408;27;46998;-76
2022/06/27 09:51:12;;;;;;;;;1.33;1.33;;;;;26.72;41.18;101457.47;5037663;28;45645;-75
2022/06/27 09:53:39;;;;;;;;;3.67;3.67;;;;;26.71;41.76;101451.16;5059760;28;46944;-76
2022/06/27 09:56:09;;;;;;;;;1.67;1.67;;;;;26.70;41.70;101449.47;5066327;28;47359;-78
2022/06/27 09:58:37;;;;;;;;;2.67;2.00;;;;;26.72;41.79;101454.75;5055397;28;45634;-78
2022/06/27 10:01:04;;;;;;;;;2.00;2.00;;;;;26.70;41.84;101463.06;5053197;27;47179;-78
2022/06/27 10:03:31;;;;;;;;;2.67;2.67;;;;;26.64;42.33;101444.72;5047367;27;45637;-75
2022/06/27 10:05:58;;;;;;;;;1.67;1.67;;;;;26.62;41.50;101444.03;5049374;27;48209;-76
2022/06/27 10:08:24;;;;;;;;;1.00;1.00;;;;;26.62;42.04;101453.06;5053503;28;45577;-77
2022/06/27 10:11:08;;;;;;;;;3.00;3.00;;;;;26.63;41.83;101454.75;5049848;27;47057;-76
2022/06/27 10:13:36;;;;;;;;;3.00;3.00;;;;;26.66;41.69;101448.09;5049114;27;45455;-76
2022/06/27 10:16:08;;;;;;;;;3.00;3.00;;;;;26.68;41.73;101449.63;5052665;27;46973;-76
2022/06/27 10:18:51;;;;;;;;;2.67;2.00;;;;;26.71;41.55;101456.59;5045228;27;47141;-76
2022/06/27 10:21:28;;;;;;;;;2.67;2.00;;;;;26.73;40.75;101449.09;5045945;27;45695;-76
2022/06/27 10:24:18;;;;;;;;;2.33;2.33;;;;;26.73;40.59;101448.25;5048344;27;46126;-75
2022/06/27 10:26:45;;;;;;;;;1.33;1.33;;;;;26.71;41.03;101453.88;5047015;27;45745;-76
2022/06/27 10:29:29;;;;;;;;;1.00;1.00;;;;;26.70;40.52;101458.47;5052517;27;45708;-76
2022/06/27 10:31:55;;;;;;;;;3.00;2.00;;;;;26.69;40.93;101456.78;5050226;27;47635;-75
2022/06/27 10:34:46;;;;;;;;;2.00;2.00;;;;;26.69;40.43;101453.22;5048638;27;47597;-76
2022/06/27 10:37:21;;;;;;;;;1.00;1.00;;;;;26.68;40.18;101455.06;5056051;27;45507;-76
2022/06/27 10:39:47;;;;;;;;;3.00;1.00;;;;;26.67;39.56;101453.38;5050678;27;45599;-75
2022/06/27 10:42:43;;;;;;;;;3.00;1.00;;;;;26.67;40.18;101467.00;5052994;27;45755;-75
2022/06/27 10:45:21;;;;;;;;;1.33;1.33;;;;;26.66;39.31;101472.59;5045316;27;46548;-75
2022/06/27 10:47:50;;;;;;;;;1.00;1.00;;;;;26.64;39.86;101466.50;5050156;27;47158;-75
2022/06/27 10:50:18;;;;;;;;;3.67;1.00;;;;;26.63;39.33;101468.34;5046670;27;45505;-75
2022/06/27 10:52:44;;;;;;;;;1.00;1.00;;;;;26.63;39.51;101470.22;5049189;27;46092;-75
2022/06/27 10:55:40;;;;;;;;;2.00;2.00;;;;;26.65;39.27;101463.56;5058159;27;45728;-75
2022/06/27 10:58:22;;;;;;;;;1.00;1.00;;;;;26.64;39.38;101461.88;5042543;27;47306;-75
2022/06/27 11:00:48;;;;;;;;;2.00;1.00;;;;;26.66;39.01;101461.72;5052343;27;46172;-76
2022/06/27 11:03:25;;;;;;;;;1.00;1.00;;;;;26.65;39.83;101462.75;5055718;27;46131;-75
2022/06/27 11:05:58;;;;;;;;;1.00;1.00;;;;;26.66;39.95;101468.03;5053517;27;47342;-75
2022/06/27 11:08:24;;;;;;;;;1.00;1.00;;;;;26.66;39.93;101468.03;5048823;27;46967;-76
2022/06/27 11:10:50;;;;;;;;;2.00;2.00;;;;;26.68;39.94;101468.69;5049666;27;46169;-76
2022/06/27 11:13:34;;;;;;;;;1.00;1.00;;;;;26.72;39.55;101450.13;5061329;27;47653;-76
2022/06/27 11:16:00;;;;;;;;;1.00;1.00;;;;;26.74;38.70;101456.28;5070097;28;45392;-77
2022/06/27 11:18:25;;;;;;;;;0.33;0.33;;;;;26.78;38.28;101454.03;5061966;27;45860;-77
2022/06/27 11:20:56;;;;;;;;;3.00;1.00;;;;;26.80;38.13;101458.28;5074698;28;45491;-76
2022/06/27 11:23:22;;;;;;;;;1.00;1.00;;;;;26.82;38.41;101449.94;5058456;28;45564;-76
2022/06/27 11:25:48;;;;;;;;;1.00;1.00;;;;;26.84;38.36;101458.78;5068691;28;45615;-77
2022/06/27 11:33:46;;;;;;;;;1.33;1.33;;;;;26.92;38.67;101456.03;5050979;27;45654;-80
2022/06/27 11:36:13;;;;;;;;;1.00;1.00;;;;;26.93;38.10;101457.78;5050089;27;46683;-79
2022/06/27 11:38:47;;;;;;;;;1.00;1.00;;;;;26.93;38.45;101462.34;5060335;27;45554;-77
2022/06/27 11:41:15;;;;;;;;;0.67;0.67;;;;;26.92;37.36;101460.63;5050765;27;47165;-79
2022/06/27 11:43:58;;;;;;;;;2.00;2.00;;;;;26.89;36.64;101455.56;5057393;27;46259;-77
2022/06/27 11:46:28;;;;;;;;;3.00;3.00;;;;;26.88;36.58;101457.41;5050619;27;45905;-75
2022/06/27 11:49:20;;;;;;;;;1.00;1.00;;;;;26.92;36.89;101464.22;5049970;27;46225;-77
2022/06/27 11:51:48;;;;;;;;;0.00;0.00;;;;;26.94;36.99;101458.63;5051634;27;46377;-78
2022/06/27 11:54:15;;;;;;;;;0.00;0.00;;;;;26.93;36.63;101446.88;5051726;27;45846;-77
2022/06/27 11:56:49;;;;;;;;;2.00;0.00;;;;;26.93;35.98;101457.78;5054215;27;47630;-78
2022/06/27 11:59:16;;;;;;;;;2.00;2.00;;;;;26.93;36.48;101465.09;5056038;27;46306;-78
2022/06/27 12:01:56;;;;;;;;;1.00;1.00;;;;;26.90;36.58;101470.88;5057385;28;47146;-77
2022/06/27 12:04:33;;;;;;;;;0.67;0.67;;;;;26.90;36.96;101474.44;5059471;28;45528;-81
2022/06/27 12:07:05;;;;;;;;;1.00;1.00;;;;;26.90;36.71;101482.63;5070274;27;46189;-81
2022/06/27 12:09:30;;;;;;;;;2.00;2.00;;;;;26.91;37.07;101478.88;5062135;27;47046;-76
2022/06/27 12:12:01;;;;;;;;;1.00;1.00;;;;;26.94;38.17;101480.44;5056076;27;47107;-77
2022/06/27 12:14:29;;;;;;;;;2.00;2.00;;;;;26.94;37.50;101494.88;5055820;27;47218;-79
2022/06/27 12:16:58;;;;;;;;;1.67;1.67;;;;;26.95;37.51;101480.25;5070702;27;45502;-76
2022/06/27 12:19:25;;;;;;;;;3.00;1.67;;;;;26.97;38.02;101485.50;5058109;27;45629;-76
2022/06/27 12:21:50;;;;;;;;;0.67;0.67;;;;;27.00;37.80;101485.16;5068184;27;45566;-77
2022/06/27 12:24:16;;;;;;;;;1.00;1.00;;;;;27.03;38.40;101481.25;5056718;27;47189;-76
2022/06/27 12:26:42;;;;;;;;;2.00;2.00;;;;;27.06;37.93;101480.91;5051788;27;45565;-76
2022/06/27 12:29:08;;;;;;;;;1.67;1.67;;;;;27.09;38.19;101485.97;5048816;27;45746;-76
2022/06/27 12:31:36;;;;;;;;;1.00;1.00;;;;;27.13;38.10;101491.97;5052179;27;48073;-76
2022/06/27 12:34:03;;;;;;;;;1.00;1.00;;;;;27.15;37.87;101490.75;5051614;27;45684;-76
2022/06/27 12:36:30;;;;;;;;;2.00;2.00;;;;;27.19;38.52;101485.78;5056694;28;46113;-77
2022/06/27 12:38:55;;;;;;;;;2.00;1.00;;;;;27.23;38.60;101489.88;5052810;27;45852;-77
2022/06/27 12:41:21;;;;;;;;;3.00;3.00;;;;;27.25;38.13;101492.44;5051518;27;45724;-77
2022/06/27 12:43:47;;;;;;;;;4.00;2.00;;;;;27.24;38.72;101497.00;5051054;27;47100;-78
2022/06/27 12:46:14;;;;;;;;;1.00;1.00;;;;;27.24;38.33;101499.75;5051370;27;47334;-77
2022/06/27 12:48:41;;;;;;;;;2.33;2.33;;;;;27.24;38.30;101491.56;5053121;27;47164;-78
2022/06/27 12:51:08;;;;;;;;;1.00;1.00;;;;;27.23;38.92;101504.31;5057671;27;47097;-78
2022/06/27 12:53:34;;;;;;;;;0.33;0.33;;;;;27.23;38.80;101498.88;5048049;27;45690;-76
2022/06/27 12:56:02;;;;;;;;;0.00;0.00;;;;;27.23;39.22;101507.06;5066647;28;45532;-77
2022/06/27 12:58:28;;;;;;;;;0.00;0.00;;;;;27.26;38.52;101505.84;5066826;28;47181;-78
2022/06/27 13:00:53;;;;;;;;;3.67;1.00;;;;;27.28;38.58;101490.19;5069674;28;45851;-77
2022/06/27 13:03:18;;;;;;;;;1.00;1.00;;;;;27.30;38.57;101495.47;5067385;28;45539;-76
2022/06/27 13:05:44;;;;;;;;;1.00;1.00;;;;;27.31;39.25;101500.75;5058077;28;45507;-77
2022/06/27 13:08:09;;;;;;;;;1.67;1.67;;;;;27.33;38.95;101500.56;5064905;27;46099;-77
2022/06/27 13:10:36;;;;;;;;;1.00;1.00;;;;;27.36;38.69;101497.47;5071382;28;45921;-78
2022/06/27 13:13:02;;;;;;;;;1.33;1.33;;;;;27.38;38.81;101500.88;5069589;28;45486;-77
2022/06/27 13:15:31;;;;;;;;;1.00;1.00;;;;;27.40;39.24;101501.56;5060741;28;45459;-77
2022/06/27 13:17:56;;;;;;;;;1.00;1.00;;;;;27.43;38.97;101497.63;5066719;27;46427;-77
2022/06/27 13:20:22;;;;;;;;;1.33;1.00;;;;;27.44;38.77;101502.06;5071957;28;45387;-77
2022/06/27 13:22:47;;;;;;;;;2.00;1.00;;;;;27.45;39.08;101507.34;5067837;27;45368;-77
2022/06/27 13:25:13;;;;;;;;;1.00;1.00;;;;;27.46;39.36;101511.75;5070299;28;52101;-77
2022/06/27 13:27:39;;;;;;;;;1.00;1.00;;;;;27.48;39.02;101511.56;5068860;27;46408;-77
2022/06/27 13:30:05;;;;;;;;;1.00;1.00;;;;;27.49;38.88;101510.53;5066609;28;45466;-77
2022/06/27 13:32:30;;;;;;;;;0.00;0.00;;;;;27.53;37.72;101511.03;5051812;27;45343;-76
2022/06/27 13:34:57;;;;;;;;;1.33;1.33;;;;;27.55;37.90;101511.72;5068852;27;45794;-76
2022/06/27 13:37:22;;;;;;;;;1.67;1.67;;;;;27.55;38.20;101520.72;5069729;28;45960;-76
2022/06/27 13:39:48;;;;;;;;;1.00;1.00;;;;;27.56;38.43;101517.00;5065728;27;45613;-76
2022/06/27 13:42:13;;;;;;;;;1.67;1.67;;;;;27.56;37.83;101525.19;5066657;28;45440;-75
2022/06/27 13:44:38;;;;;;;;;0.67;0.67;;;;;27.57;37.94;101523.28;5067674;27;47754;-76
2022/06/27 13:47:04;;;;;;;;;2.00;0.33;;;;;27.58;38.55;101530.44;5071718;28;46265;-78
2022/06/27 13:49:29;;;;;;;;;1.33;0.00;;;;;27.60;38.49;101540.19;5071192;28;45786;-78
2022/06/27 13:51:55;;;;;;;;;1.00;1.00;;;;;27.62;37.97;101529.94;5071612;28;45483;-75
2022/06/27 13:54:20;;;;;;;;;3.00;1.67;;;;;27.64;38.88;101534.38;5069925;28;45707;-75
2022/06/27 13:56:45;;;;;;;;;0.33;0.33;;;;;27.65;38.30;101536.91;5065869;28;46454;-77
2022/06/27 13:59:13;;;;;;;;;2.33;2.00;;;;;27.65;38.26;101534.19;5068755;28;46707;-77
2022/06/27 14:01:40;;;;;;;;;0.00;0.00;;;;;27.42;38.52;101534.09;5070126;27;45379;-78
2022/06/27 14:04:05;;;;;;;;;1.33;0.00;;;;;26.82;38.93;101529.75;5068195;28;45572;-78
2022/06/27 14:09:15;;;;;;;;;0.00;0.00;;;;;25.76;40.50;101533.00;5066618;28;45423;-75
2022/06/27 14:11:40;;;;;;;;;2.00;0.00;;;;;25.46;41.23;101535.25;5067051;28;45497;-77
2022/06/27 14:14:06;;;;;;;;;1.00;1.00;;;;;25.24;41.71;101534.81;5066513;27;45672;-77
2022/06/27 14:16:31;;;;;;;;;2.00;2.00;;;;;25.08;42.42;101534.69;5065910;28;47029;-78
2022/06/27 14:18:57;;;;;;;;;0.33;0.33;;;;;24.94;42.50;101538.84;5065467;27;45735;-78
2022/06/27 14:21:23;;;;;;;;;0.67;0.67;;;;;24.82;43.02;101541.81;5062162;27;45810;-76
2022/06/27 14:23:48;;;;;;;;;2.00;0.33;;;;;24.72;43.44;101533.72;5063115;27;45533;-79
2022/06/27 14:26:14;;;;;;;;;1.00;1.00;;;;;24.66;43.54;101538.94;5064896;27;47671;-80
2022/06/27 14:28:39;;;;;;;;;1.00;0.33;;;;;24.59;43.95;101542.28;5061767;27;45698;-79
2022/06/27 14:31:04;;;;;;;;;1.00;1.00;;;;;24.54;44.38;101549.19;5060161;27;45760;-80
2022/06/27 14:33:33;;;;;;;;;0.00;0.00;;;;;24.49;44.43;101541.53;5064458;27;45659;-77
2022/06/27 14:35:59;;;;;;;;;0.33;0.33;;;;;24.44;44.34;101544.69;5065870;27;46460;-79
2022/06/27 14:38:24;;;;;;;;;3.67;2.00;;;;;24.42;44.57;101535.88;5066351;27;45668;-78
2022/06/27 14:40:50;;;;;;;;;0.00;0.00;;;;;24.37;44.22;101535.47;5068679;27;45706;-82
2022/06/27 14:43:15;;;;;;;;;4.33;1.33;;;;;24.39;43.78;101546.19;5073098;27;47503;-77
2022/06/27 14:45:41;;;;;;;;;1.67;1.67;;;;;24.39;44.01;101538.03;5073657;28;45772;-78
2022/06/27 14:48:06;;;;;;;;;1.67;1.67;;;;;24.39;44.03;101541.59;5068804;28;54792;-79
2022/06/27 14:50:31;;;;;;;;;0.00;0.00;;;;;24.37;44.05;101543.63;5071889;28;45301;-80
2022/06/27 14:52:57;;;;;;;;;1.00;1.00;;;;;24.38;44.37;101548.03;5072593;28;45621;-79
2022/06/27 14:55:23;;;;;;;;;1.00;1.00;;;;;24.36;44.29;101539.19;5057443;28;47591;-79
2022/06/27 14:57:48;;;;;;;;;0.67;0.67;;;;;24.38;44.63;101558.00;5065877;27;45334;-80
2022/06/27 15:00:14;;;;;;;;;2.00;0.00;;;;;24.38;44.93;101552.59;5070978;27;45790;-81
2022/06/27 15:02:40;;;;;;;;;1.00;1.00;;;;;24.37;44.96;101557.19;5064592;27;45561;-82
2022/06/27 15:05:09;;;;;;;;;3.00;1.00;;;;;24.37;45.24;101559.03;5068070;27;45600;-88
2022/06/27 15:07:36;;;;;;;;;1.00;1.00;;;;;24.37;45.21;101554.47;5050892;27;45837;-81
2022/06/27 15:10:02;;;;;;;;;0.00;0.00;;;;;24.38;45.43;101548.03;5055818;27;46262;-80
2022/06/27 15:12:27;;;;;;;;;1.67;1.00;;;;;24.40;45.56;101558.72;5055647;27;46143;-79
2022/06/27 15:14:52;;;;;;;;;1.00;0.33;;;;;24.41;45.60;101563.16;5053128;27;47092;-80
2022/06/27 15:17:18;;;;;;;;;2.00;0.00;;;;;24.42;45.63;101554.84;5058823;27;46419;-80
2022/06/27 15:19:43;;;;;;;;;2.00;1.67;;;;;24.44;45.54;101555.53;5051359;27;45633;-77
2022/06/27 15:22:08;;;;;;;;;1.00;1.00;;;;;24.46;45.70;101544.53;5053469;27;45688;-78
2022/06/27 15:24:34;;;;;;;;;0.33;0.33;;;;;24.47;45.87;101551.66;5051362;27;48454;-77
2022/06/27 15:27:00;;;;;;;;;1.00;1.00;;;;;24.47;45.98;101557.97;5048157;27;45582;-77
2022/06/27 15:29:26;;;;;;;;;2.33;1.00;;;;;24.48;45.98;101564.22;5059142;27;47101;-77
2022/06/27 15:31:51;;;;;;;;;1.00;1.00;;;;;24.47;45.98;101563.38;5071834;27;45903;-77
2022/06/27 15:34:16;;;;;;;;;1.00;1.00;;;;;24.48;46.24;101561.50;5069527;27;46420;-76
2022/06/27 15:36:42;;;;;;;;;0.67;0.67;;;;;24.47;46.39;101557.09;5055268;27;45982;-77
2022/06/27 15:39:08;;;;;;;;;0.00;0.00;;;;;24.46;46.40;101561.69;5057362;27;45525;-78
2022/06/27 15:41:33;;;;;;;;;3.00;1.00;;;;;24.54;45.50;101565.47;5054315;27;45734;-77
2022/06/27 15:43:59;;;;;;;;;2.33;1.33;;;;;24.74;44.21;101572.41;5054420;27;47574;-75
2022/06/27 15:46:24;;;;;;;;;1.33;1.33;;;;;24.98;43.58;101564.69;5052765;27;47345;-75
2022/06/27 15:48:50;;;;;;;;;1.67;1.67;;;;;25.22;43.05;101563.16;5057437;28;46989;-76
2022/06/27 15:51:15;;;;;;;;;3.67;1.00;;;;;25.42;42.66;101558.31;5059069;28;46091;-76
2022/06/27 15:53:41;;;;;;;;;1.67;1.33;;;;;25.63;42.33;101554.38;5073165;28;46058;-80
2022/06/27 15:56:06;;;;;;;;;1.67;1.67;;;;;25.83;41.44;101562.28;5071992;28;45399;-76
2022/06/27 15:58:32;;;;;;;;;1.00;1.00;;;;;25.97;39.96;101560.78;5066740;28;45981;-77
2022/06/27 16:00:57;;;;;;;;;2.67;1.00;;;;;26.10;38.62;101563.03;5067166;27;45258;-77
2022/06/27 16:03:23;;;;;;;;;0.00;0.00;;;;;26.23;39.21;101562.56;5070587;28;46027;-75
2022/06/27 16:05:50;;;;;;;;;1.33;1.00;;;;;26.32;37.29;101550.69;5068715;28;45463;-75
2022/06/27 16:08:17;;;;;;;;;1.00;1.00;;;;;26.43;36.56;101563.13;5066630;27;45848;-74
2022/06/27 16:10:43;;;;;;;;;0.67;0.67;;;;;26.50;35.78;101564.16;5064854;27;45874;-74
2022/06/27 16:13:08;;;;;;;;;1.00;1.00;;;;;26.57;35.10;101567.88;5068611;28;46066;-73
2022/06/27 16:15:33;;;;;;;;;0.00;0.00;;;;;26.64;34.87;101559.91;5066333;28;45442;-73
2022/06/27 16:17:59;;;;;;;;;1.00;0.67;;;;;26.71;35.17;101568.25;5063458;28;45739;-73
2022/06/27 16:20:24;;;;;;;;;0.33;0.33;;;;;26.76;34.25;101567.75;5071229;28;45511;-74
2022/06/27 16:22:49;;;;;;;;;1.00;1.00;;;;;26.82;34.46;101567.88;5067705;28;45575;-76
2022/06/27 16:25:15;;;;;;;;;1.00;1.00;;;;;26.88;33.95;101566.34;5063058;28;45469;-81
2022/06/27 16:27:41;;;;;;;;;0.00;0.00;;;;;26.91;33.08;101565.16;5064522;28;45772;-75
2022/06/27 16:30:07;;;;;;;;;1.00;1.00;;;;;26.90;34.94;101569.78;5065371;28;45407;-76
2022/06/27 16:32:33;;;;;;;;;2.00;0.00;;;;;26.93;34.54;101563.13;5067165;27;49369;-77
2022/06/27 16:34:58;;;;;;;;;0.00;0.00;;;;;26.94;33.71;101571.13;5066640;27;45618;-78
2022/06/27 16:37:23;;;;;;;;;1.00;1.00;;;;;26.93;34.45;101568.59;5066394;27;45304;-79
2022/06/27 16:39:49;;;;;;;;;1.00;1.00;;;;;26.89;35.17;101567.22;5072792;27;50405;-78
2022/06/27 16:44:58;;;;;;;;;1.00;1.00;;;;;26.76;34.22;101560.41;5071200;28;45371;-77
2022/06/27 16:47:30;;;;;;;;;1.67;1.00;;;;;26.80;34.12;101558.19;5079162;27;46059;-82
2022/06/27 16:49:57;;;;;;;;;3.00;3.00;;;;;26.81;35.35;101570.81;5068084;28;45415;-80
2022/06/27 16:52:22;;;;;;;;;4.00;4.00;;;;;26.74;35.27;101567.03;5062424;28;46141;-78
2022/06/27 16:54:47;;;;;;;;;5.00;4.33;;;;;26.61;35.78;101565.69;5064557;28;45948;-84
2022/06/27 16:57:13;;;;;;;;;11.33;6.67;;;;;26.55;35.48;101567.22;5065314;28;45377;-77
2022/06/27 16:59:38;;;;;;;;;15.33;12.33;;;;;26.50;36.19;101566.88;5066550;27;45407;-80
2022/06/27 17:02:04;;;;;;;;;10.67;8.33;;;;;26.48;36.17;101573.50;5067284;28;45319;-82
2022/06/27 17:04:30;;;;;;;;;9.00;9.00;;;;;26.46;36.08;101564.66;5067049;28;49336;-86
2022/06/27 17:06:55;;;;;;;;;15.67;10.67;;;;;26.47;36.29;101571.78;5066349;27;46092;-83
2022/06/27 17:09:21;;;;;;;;;20.67;17.00;;;;;26.44;35.67;101562.94;5064851;27;45554;-81
2022/06/27 17:11:47;;;;;;;;;12.00;10.67;;;;;26.46;35.24;101568.22;5067137;28;45837;-80
2022/06/27 17:14:13;;;;;;;;;12.00;10.00;;;;;26.44;35.01;101571.13;5068894;27;45502;-81
2022/06/27 17:16:40;;;;;;;;;8.00;5.00;;;;;26.45;33.99;101574.69;5071980;28;45419;-81
2022/06/27 17:19:05;;;;;;;;;5.67;2.67;;;;;26.51;32.91;101578.59;5072516;27;45669;-83
2022/06/27 17:21:30;;;;;;;;;2.33;1.00;;;;;26.55;32.83;101582.69;5071106;28;45577;-88
2022/06/27 17:23:56;;;;;;;;;2.00;2.00;;;;;26.57;32.40;101581.50;5066639;28;45495;-88
2022/06/27 17:26:21;;;;;;;;;1.00;1.00;;;;;26.57;31.90;101572.50;5069600;28;45489;-87
2022/06/27 17:28:46;;;;;;;;;0.00;0.00;;;;;26.62;31.84;101586.44;5064589;28;45534;-87
2022/06/27 17:31:12;;;;;;;;;1.00;1.00;;;;;26.63;31.92;101585.44;5071392;28;55498;-85
2022/06/27 17:33:37;;;;;;;;;0.00;0.00;;;;;26.65;31.84;101577.94;5066590;28;45715;-87
2022/06/27 17:36:03;;;;;;;;;1.33;0.00;;;;;26.70;31.98;101582.88;5067223;28;54568;-87
2022/06/27 17:38:29;;;;;;;;;1.00;1.00;;;;;26.74;32.03;101575.22;5071753;28;45529;-87
2022/06/27 17:40:54;;;;;;;;;0.00;0.00;;;;;26.77;31.18;101583.06;5067379;27;45518;-87
2022/06/27 17:43:19;;;;;;;;;0.00;0.00;;;;;26.83;31.95;101593.25;5067489;28;45447;-86
2022/06/27 17:45:45;;;;;;;;;0.67;0.00;;;;;26.86;31.60;101587.47;5062736;28;45446;-88